sensor_id;sensor_type;location;lat;lon;timestamp;pressure;altitude;pressure_sealevel;temperature;humidity
67980;BME280;54760;47.490;19.030;2022-12-18T00:00:42;101463.28;;;-0.92;74.09
67980;BME280;54760;47.490;19.030;2022-12-18T00:03:07;101467.72;;;-0.87;74.29
67980;BME280;54760;47.490;19.030;2022-12-18T00:05:33;101475.56;;;-0.68;73.24
67980;BME280;54760;47.490;19.030;2022-12-18T00:07:58;101476.97;;;-0.79;73.46
67980;BME280;54760;47.490;19.030;2022-12-18T00:10:24;101481.03;;;-0.82;73.35
67980;BME280;54760;47.490;19.030;2022-12-18T00:12:49;101493.94;;;-0.70;73.20
67980;BME280;54760;47.490;19.030;2022-12-18T00:15:15;101495.91;;;-0.84;73.57
67980;BME280;54760;47.490;19.030;2022-12-18T00:17:40;101504.78;;;-0.84;73.13
67980;BME280;54760;47.490;19.030;2022-12-18T00:20:06;101514.59;;;-1.02;73.74
67980;BME280;54760;47.490;19.030;2022-12-18T00:22:32;101517.50;;;-0.98;73.76
67980;BME280;54760;47.490;19.030;2022-12-18T00:24:57;101523.62;;;-0.98;73.67
67980;BME280;54760;47.490;19.030;2022-12-18T00:27:22;101524.44;;;-0.97;73.59
67980;BME280;54760;47.490;19.030;2022-12-18T00:29:48;101531.84;;;-1.03;73.84
67980;BME280;54760;47.490;19.030;2022-12-18T00:32:13;101533.06;;;-1.09;73.91
67980;BME280;54760;47.490;19.030;2022-12-18T00:34:39;101531.09;;;-1.17;73.89
67980;BME280;54760;47.490;19.030;2022-12-18T00:37:04;101544.28;;;-1.07;73.94
67980;BME280;54760;47.490;19.030;2022-12-18T00:39:29;101543.44;;;-1.16;74.31
67980;BME280;54760;47.490;19.030;2022-12-18T00:41:55;101546.91;;;-1.15;74.09
67980;BME280;54760;47.490;19.030;2022-12-18T00:44:38;101553.72;;;-1.18;73.95
67980;BME280;54760;47.490;19.030;2022-12-18T00:47:04;101544.75;;;-1.27;74.40
67980;BME280;54760;47.490;19.030;2022-12-18T00:49:29;101551.13;;;-1.23;74.68
67980;BME280;54760;47.490;19.030;2022-12-18T00:51:55;101550.12;;;-1.27;74.97
67980;BME280;54760;47.490;19.030;2022-12-18T00:54:20;101550.47;;;-1.28;74.89
67980;BME280;54760;47.490;19.030;2022-12-18T00:56:45;101549.03;;;-1.26;74.71
67980;BME280;54760;47.490;19.030;2022-12-18T00:59:11;101550.12;;;-1.27;74.58
67980;BME280;54760;47.490;19.030;2022-12-18T01:01:36;101562.69;;;-1.36;74.61
67980;BME280;54760;47.490;19.030;2022-12-18T01:04:02;101565.37;;;-1.36;74.94
67980;BME280;54760;47.490;19.030;2022-12-18T01:06:28;101569.09;;;-1.32;75.08
67980;BME280;54760;47.490;19.030;2022-12-18T01:08:54;101575.66;;;-1.38;74.90
67980;BME280;54760;47.490;19.030;2022-12-18T01:11:21;101580.00;;;-1.28;74.69
67980;BME280;54760;47.490;19.030;2022-12-18T01:13:46;101575.03;;;-1.35;74.89
67980;BME280;54760;47.490;19.030;2022-12-18T01:16:14;101573.91;;;-1.20;74.27
67980;BME280;54760;47.490;19.030;2022-12-18T01:18:41;101582.78;;;-1.20;74.14
67980;BME280;54760;47.490;19.030;2022-12-18T01:21:08;101584.59;;;-1.29;74.43
67980;BME280;54760;47.490;19.030;2022-12-18T01:23:33;101585.50;;;-1.34;74.45
67980;BME280;54760;47.490;19.030;2022-12-18T01:26:07;101595.78;;;-1.49;75.64
67980;BME280;54760;47.490;19.030;2022-12-18T01:28:33;101593.84;;;-1.35;74.66
67980;BME280;54760;47.490;19.030;2022-12-18T01:31:10;101595.78;;;-1.49;75.44
67980;BME280;54760;47.490;19.030;2022-12-18T01:33:35;101594.34;;;-1.33;75.26
67980;BME280;54760;47.490;19.030;2022-12-18T01:36:00;101602.19;;;-1.23;74.55
67980;BME280;54760;47.490;19.030;2022-12-18T01:38:28;101594.03;;;-1.18;74.29
67980;BME280;54760;47.490;19.030;2022-12-18T01:41:00;101604.13;;;-1.37;74.84
67980;BME280;54760;47.490;19.030;2022-12-18T01:46:10;101613.84;;;-1.27;74.73
67980;BME280;54760;47.490;19.030;2022-12-18T01:48:36;101616.06;;;-1.43;75.23
67980;BME280;54760;47.490;19.030;2022-12-18T01:51:01;101619.06;;;-1.58;75.35
67980;BME280;54760;47.490;19.030;2022-12-18T01:53:27;101626.50;;;-1.42;75.68
67980;BME280;54760;47.490;19.030;2022-12-18T01:55:55;101618.88;;;-1.62;76.37
67980;BME280;54760;47.490;19.030;2022-12-18T01:58:32;101621.06;;;-1.64;76.21
67980;BME280;54760;47.490;19.030;2022-12-18T02:01:01;101623.81;;;-1.55;75.84
67980;BME280;54760;47.490;19.030;2022-12-18T02:03:26;101625.53;;;-1.59;76.21
67980;BME280;54760;47.490;19.030;2022-12-18T02:08:34;101625.22;;;-1.44;74.74
67980;BME280;54760;47.490;19.030;2022-12-18T02:19:08;101648.69;;;-1.63;76.09
67980;BME280;54760;47.490;19.030;2022-12-18T02:21:55;101650.87;;;-1.65;75.65
67980;BME280;54760;47.490;19.030;2022-12-18T02:24:38;101647.31;;;-1.75;76.14
67980;BME280;54760;47.490;19.030;2022-12-18T02:27:07;101648.97;;;-1.51;76.01
67980;BME280;54760;47.490;19.030;2022-12-18T02:29:50;101651.66;;;-1.51;75.95
67980;BME280;54760;47.490;19.030;2022-12-18T02:32:26;101653.06;;;-1.40;75.37
67980;BME280;54760;47.490;19.030;2022-12-18T02:34:55;101653.03;;;-1.26;74.14
67980;BME280;54760;47.490;19.030;2022-12-18T02:37:22;101658.72;;;-1.28;74.00
67980;BME280;54760;47.490;19.030;2022-12-18T02:39:49;101661.81;;;-1.48;75.09
67980;BME280;54760;47.490;19.030;2022-12-18T02:42:17;101666.38;;;-1.35;74.19
67980;BME280;54760;47.490;19.030;2022-12-18T02:44:49;101666.78;;;-1.28;74.09
67980;BME280;54760;47.490;19.030;2022-12-18T02:47:16;101673.34;;;-1.34;74.33
67980;BME280;54760;47.490;19.030;2022-12-18T02:52:39;101671.03;;;-1.27;74.22
67980;BME280;54760;47.490;19.030;2022-12-18T02:57:49;101675.62;;;-1.41;74.66
67980;BME280;54760;47.490;19.030;2022-12-18T03:00:23;101685.38;;;-1.45;74.64
67980;BME280;54760;47.490;19.030;2022-12-18T03:02:57;101686.06;;;-1.26;73.84
67980;BME280;54760;47.490;19.030;2022-12-18T03:05:40;101694.94;;;-1.39;74.30
67980;BME280;54760;47.490;19.030;2022-12-18T03:08:22;101704.97;;;-1.31;73.64
67980;BME280;54760;47.490;19.030;2022-12-18T03:10:58;101696.22;;;-1.50;75.02
67980;BME280;54760;47.490;19.030;2022-12-18T03:13:31;101705.78;;;-1.31;74.06
67980;BME280;54760;47.490;19.030;2022-12-18T03:15:58;101706.69;;;-1.35;74.21
67980;BME280;54760;47.490;19.030;2022-12-18T03:18:49;101707.38;;;-1.29;74.00
67980;BME280;54760;47.490;19.030;2022-12-18T03:21:29;101707.78;;;-1.36;74.03
67980;BME280;54760;47.490;19.030;2022-12-18T03:23:57;101709.56;;;-1.32;74.18
67980;BME280;54760;47.490;19.030;2022-12-18T03:26:25;101707.78;;;-1.36;74.35
67980;BME280;54760;47.490;19.030;2022-12-18T03:28:56;101717.13;;;-1.20;73.77
67980;BME280;54760;47.490;19.030;2022-12-18T03:31:26;101720.72;;;-1.52;74.39
67980;BME280;54760;47.490;19.030;2022-12-18T03:33:54;101719.31;;;-1.77;76.05
67980;BME280;54760;47.490;19.030;2022-12-18T03:36:21;101726.06;;;-1.65;75.89
67980;BME280;54760;47.490;19.030;2022-12-18T03:38:46;101732.84;;;-1.68;75.39
67980;BME280;54760;47.490;19.030;2022-12-18T03:46:28;101742.53;;;-1.86;76.75
67980;BME280;54760;47.490;19.030;2022-12-18T03:49:03;101745.47;;;-1.68;75.58
67980;BME280;54760;47.490;19.030;2022-12-18T03:52:23;101737.97;;;-1.85;76.25
67980;BME280;54760;47.490;19.030;2022-12-18T03:54:23;101746.19;;;-1.95;77.16
67980;BME280;54760;47.490;19.030;2022-12-18T03:57:01;101747.31;;;-1.83;76.80
67980;BME280;54760;47.490;19.030;2022-12-18T03:59:29;101748.50;;;-1.89;77.38
67980;BME280;54760;47.490;19.030;2022-12-18T04:01:56;101741.44;;;-1.85;77.24
67980;BME280;54760;47.490;19.030;2022-12-18T04:04:24;101733.41;;;-1.85;76.80
67980;BME280;54760;47.490;19.030;2022-12-18T04:06:51;101745.34;;;-1.77;76.99
67980;BME280;54760;47.490;19.030;2022-12-18T04:09:18;101752.13;;;-2.12;77.94
67980;BME280;54760;47.490;19.030;2022-12-18T04:11:44;101753.09;;;-1.76;76.85
67980;BME280;54760;47.490;19.030;2022-12-18T04:14:11;101755.87;;;-1.81;77.15
67980;BME280;54760;47.490;19.030;2022-12-18T04:16:36;101773.34;;;-1.97;77.99
67980;BME280;54760;47.490;19.030;2022-12-18T04:19:02;101764.97;;;-1.95;78.12
67980;BME280;54760;47.490;19.030;2022-12-18T04:21:27;101762.78;;;-2.07;78.84
67980;BME280;54760;47.490;19.030;2022-12-18T04:23:53;101764.50;;;-1.97;79.29
67980;BME280;54760;47.490;19.030;2022-12-18T04:26:18;101768.38;;;-2.22;79.74
67980;BME280;54760;47.490;19.030;2022-12-18T04:28:44;101770.69;;;-2.15;79.85
67980;BME280;54760;47.490;19.030;2022-12-18T04:31:09;101768.00;;;-2.15;79.87
67980;BME280;54760;47.490;19.030;2022-12-18T04:33:34;101769.03;;;-2.30;80.53
67980;BME280;54760;47.490;19.030;2022-12-18T04:36:00;101773.75;;;-2.22;80.48
67980;BME280;54760;47.490;19.030;2022-12-18T04:38:25;101770.03;;;-2.07;80.15
67980;BME280;54760;47.490;19.030;2022-12-18T04:40:50;101793.81;;;-2.38;80.67
67980;BME280;54760;47.490;19.030;2022-12-18T04:43:16;101784.03;;;-2.29;81.03
67980;BME280;54760;47.490;19.030;2022-12-18T04:45:41;101783.22;;;-2.11;80.50
67980;BME280;54760;47.490;19.030;2022-12-18T04:48:06;101789.41;;;-2.10;80.55
67980;BME280;54760;47.490;19.030;2022-12-18T04:50:32;101793.69;;;-2.28;80.64
67980;BME280;54760;47.490;19.030;2022-12-18T04:52:57;101802.09;;;-2.16;80.31
67980;BME280;54760;47.490;19.030;2022-12-18T04:55:23;101813.97;;;-2.22;79.14
67980;BME280;54760;47.490;19.030;2022-12-18T04:57:48;101815.88;;;-2.60;81.12
67980;BME280;54760;47.490;19.030;2022-12-18T05:00:14;101810.63;;;-2.51;80.81
67980;BME280;54760;47.490;19.030;2022-12-18T05:02:39;101809.63;;;-2.55;80.75
67980;BME280;54760;47.490;19.030;2022-12-18T05:05:05;101816.16;;;-2.24;79.97
67980;BME280;54760;47.490;19.030;2022-12-18T05:07:31;101819.94;;;-2.25;80.08
67980;BME280;54760;47.490;19.030;2022-12-18T05:09:56;101830.00;;;-2.36;80.28
67980;BME280;54760;47.490;19.030;2022-12-18T05:12:21;101830.00;;;-2.54;80.78
67980;BME280;54760;47.490;19.030;2022-12-18T05:14:47;101831.38;;;-2.38;80.35
67980;BME280;54760;47.490;19.030;2022-12-18T05:17:12;101829.22;;;-2.36;80.94
67980;BME280;54760;47.490;19.030;2022-12-18T05:19:38;101825.59;;;-2.45;80.93
67980;BME280;54760;47.490;19.030;2022-12-18T05:22:03;101831.75;;;-2.26;80.19
67980;BME280;54760;47.490;19.030;2022-12-18T05:24:28;101827.03;;;-2.34;80.62
67980;BME280;54760;47.490;19.030;2022-12-18T05:26:54;101830.00;;;-2.36;81.09
67980;BME280;54760;47.490;19.030;2022-12-18T05:29:19;101836.97;;;-2.16;79.97
67980;BME280;54760;47.490;19.030;2022-12-18T05:31:44;101843.28;;;-2.26;81.07
67980;BME280;54760;47.490;19.030;2022-12-18T05:34:10;101845.09;;;-2.40;81.45
67980;BME280;54760;47.490;19.030;2022-12-18T05:36:35;101850.81;;;-2.28;81.56
67980;BME280;54760;47.490;19.030;2022-12-18T05:39:01;101845.72;;;-2.29;81.09
67980;BME280;54760;47.490;19.030;2022-12-18T05:41:26;101842.34;;;-2.16;80.54
67980;BME280;54760;47.490;19.030;2022-12-18T05:43:52;101850.22;;;-2.25;80.93
67980;BME280;54760;47.490;19.030;2022-12-18T05:46:17;101853.50;;;-2.28;81.01
67980;BME280;54760;47.490;19.030;2022-12-18T05:48:44;101857.13;;;-2.37;81.47
67980;BME280;54760;47.490;19.030;2022-12-18T05:51:12;101862.81;;;-2.44;81.61
67980;BME280;54760;47.490;19.030;2022-12-18T05:53:38;101867.63;;;-2.41;81.65
67980;BME280;54760;47.490;19.030;2022-12-18T05:56:05;101866.03;;;-2.23;81.41
67980;BME280;54760;47.490;19.030;2022-12-18T05:58:32;101871.59;;;-2.57;81.78
67980;BME280;54760;47.490;19.030;2022-12-18T06:00:58;101877.06;;;-2.67;82.20
67980;BME280;54760;47.490;19.030;2022-12-18T06:03:23;101873.03;;;-2.65;82.96
67980;BME280;54760;47.490;19.030;2022-12-18T06:05:49;101875.72;;;-2.65;83.28
67980;BME280;54760;47.490;19.030;2022-12-18T06:08:14;101879.00;;;-2.73;83.46
67980;BME280;54760;47.490;19.030;2022-12-18T06:10:40;101884.34;;;-2.49;82.73
67980;BME280;54760;47.490;19.030;2022-12-18T06:13:06;101884.53;;;-2.88;82.67
67980;BME280;54760;47.490;19.030;2022-12-18T06:15:32;101881.50;;;-3.05;83.82
67980;BME280;54760;47.490;19.030;2022-12-18T06:17:58;101879.59;;;-2.99;84.18
67980;BME280;54760;47.490;19.030;2022-12-18T06:20:23;101874.09;;;-2.66;83.66
67980;BME280;54760;47.490;19.030;2022-12-18T06:22:49;101883.56;;;-2.49;82.21
67980;BME280;54760;47.490;19.030;2022-12-18T06:25:15;101886.78;;;-2.95;83.82
67980;BME280;54760;47.490;19.030;2022-12-18T06:27:40;101892.06;;;-3.14;83.60
67980;BME280;54760;47.490;19.030;2022-12-18T06:30:06;101892.88;;;-2.89;83.08
67980;BME280;54760;47.490;19.030;2022-12-18T06:32:32;101904.25;;;-2.74;82.33
67980;BME280;54760;47.490;19.030;2022-12-18T06:34:57;101910.16;;;-2.77;81.58
67980;BME280;54760;47.490;19.030;2022-12-18T06:37:23;101913.06;;;-2.49;80.97
67980;BME280;54760;47.490;19.030;2022-12-18T06:39:52;101910.50;;;-2.59;80.50
67980;BME280;54760;47.490;19.030;2022-12-18T06:42:18;101922.56;;;-2.38;80.63
67980;BME280;54760;47.490;19.030;2022-12-18T06:44:43;101929.72;;;-2.52;78.78
67980;BME280;54760;47.490;19.030;2022-12-18T06:47:08;101924.63;;;-2.78;81.79
67980;BME280;54760;47.490;19.030;2022-12-18T06:49:34;101936.94;;;-2.77;81.22
67980;BME280;54760;47.490;19.030;2022-12-18T06:51:59;101936.16;;;-2.53;80.28
67980;BME280;54760;47.490;19.030;2022-12-18T06:54:24;101928.41;;;-2.31;79.22
67980;BME280;54760;47.490;19.030;2022-12-18T06:56:50;101935.13;;;-2.15;78.57
67980;BME280;54760;47.490;19.030;2022-12-18T06:59:15;101937.38;;;-2.22;78.72
67980;BME280;54760;47.490;19.030;2022-12-18T07:01:41;101944.44;;;-2.26;79.21
67980;BME280;54760;47.490;19.030;2022-12-18T07:04:06;101951.16;;;-2.10;78.60
67980;BME280;54760;47.490;19.030;2022-12-18T07:06:31;101953.44;;;-2.17;78.01
67980;BME280;54760;47.490;19.030;2022-12-18T07:08:57;101961.69;;;-2.13;77.80
67980;BME280;54760;47.490;19.030;2022-12-18T07:11:22;101957.22;;;-1.99;76.02
67980;BME280;54760;47.490;19.030;2022-12-18T07:13:48;101968.69;;;-1.94;76.19
67980;BME280;54760;47.490;19.030;2022-12-18T07:16:16;101967.06;;;-2.13;76.52
67980;BME280;54760;47.490;19.030;2022-12-18T07:18:41;101975.00;;;-1.85;75.43
67980;BME280;54760;47.490;19.030;2022-12-18T07:21:10;101973.78;;;-1.92;75.55
67980;BME280;54760;47.490;19.030;2022-12-18T07:23:36;101981.44;;;-2.04;76.51
67980;BME280;54760;47.490;19.030;2022-12-18T07:26:06;101989.87;;;-1.92;76.46
67980;BME280;54760;47.490;19.030;2022-12-18T07:28:33;101988.69;;;-2.05;75.86
67980;BME280;54760;47.490;19.030;2022-12-18T07:31:02;101993.09;;;-2.62;78.12
67980;BME280;54760;47.490;19.030;2022-12-18T07:33:28;102002.00;;;-2.42;78.93
67980;BME280;54760;47.490;19.030;2022-12-18T07:35:53;102005.00;;;-2.20;78.68
67980;BME280;54760;47.490;19.030;2022-12-18T07:38:19;102014.50;;;-2.33;78.53
67980;BME280;54760;47.490;19.030;2022-12-18T07:40:44;102000.66;;;-2.16;78.64
67980;BME280;54760;47.490;19.030;2022-12-18T07:43:09;102007.53;;;-2.10;78.61
67980;BME280;54760;47.490;19.030;2022-12-18T07:45:35;102016.34;;;-1.86;78.42
67980;BME280;54760;47.490;19.030;2022-12-18T07:48:00;102019.41;;;-1.73;77.68
67980;BME280;54760;47.490;19.030;2022-12-18T07:50:25;102023.25;;;-2.22;78.33
67980;BME280;54760;47.490;19.030;2022-12-18T07:52:51;102022.03;;;-1.87;78.80
67980;BME280;54760;47.490;19.030;2022-12-18T07:55:16;102029.50;;;-1.84;78.76
67980;BME280;54760;47.490;19.030;2022-12-18T07:57:41;102034.13;;;-1.90;79.30
67980;BME280;54760;47.490;19.030;2022-12-18T08:00:07;102042.59;;;-1.59;79.16
67980;BME280;54760;47.490;19.030;2022-12-18T08:02:33;102036.63;;;-1.18;77.07
67980;BME280;54760;47.490;19.030;2022-12-18T08:04:58;102045.56;;;-1.23;76.44
67980;BME280;54760;47.490;19.030;2022-12-18T08:07:24;102043.87;;;-1.56;76.97
67980;BME280;54760;47.490;19.030;2022-12-18T08:09:49;102052.09;;;-1.48;77.13
67980;BME280;54760;47.490;19.030;2022-12-18T08:12:14;102055.72;;;-1.57;77.22
67980;BME280;54760;47.490;19.030;2022-12-18T08:14:40;102056.87;;;-1.63;77.72
67980;BME280;54760;47.490;19.030;2022-12-18T08:17:05;102063.00;;;-1.39;77.24
67980;BME280;54760;47.490;19.030;2022-12-18T08:19:30;102063.22;;;-1.36;75.94
67980;BME280;54760;47.490;19.030;2022-12-18T08:21:56;102067.47;;;-1.16;75.82
67980;BME280;54760;47.490;19.030;2022-12-18T08:24:22;102068.09;;;-1.19;76.04
67980;BME280;54760;47.490;19.030;2022-12-18T08:26:47;102064.09;;;-1.03;75.54
67980;BME280;54760;47.490;19.030;2022-12-18T08:29:12;102065.72;;;-1.07;75.71
67980;BME280;54760;47.490;19.030;2022-12-18T08:31:38;102072.56;;;-0.96;74.79
67980;BME280;54760;47.490;19.030;2022-12-18T08:34:03;102065.72;;;-0.88;74.71
67980;BME280;54760;47.490;19.030;2022-12-18T08:36:29;102067.63;;;-0.89;74.38
67980;BME280;54760;47.490;19.030;2022-12-18T08:38:54;102077.06;;;-1.10;75.57
67980;BME280;54760;47.490;19.030;2022-12-18T08:41:21;102073.28;;;-0.90;74.98
67980;BME280;54760;47.490;19.030;2022-12-18T08:43:47;102074.16;;;-0.95;75.30
67980;BME280;54760;47.490;19.030;2022-12-18T08:46:37;102078.06;;;-0.87;75.12
67980;BME280;54760;47.490;19.030;2022-12-18T08:49:03;102077.59;;;-0.75;74.42
67980;BME280;54760;47.490;19.030;2022-12-18T08:51:29;102074.00;;;-0.84;74.58
67980;BME280;54760;47.490;19.030;2022-12-18T08:53:55;102079.16;;;-0.88;75.09
67980;BME280;54760;47.490;19.030;2022-12-18T08:56:20;102079.16;;;-0.56;74.06
67980;BME280;54760;47.490;19.030;2022-12-18T08:58:45;102085.47;;;-0.33;73.29
67980;BME280;54760;47.490;19.030;2022-12-18T09:01:12;102084.66;;;-0.47;73.79
67980;BME280;54760;47.490;19.030;2022-12-18T09:03:39;102090.63;;;-0.50;74.19
67980;BME280;54760;47.490;19.030;2022-12-18T09:06:04;102092.69;;;-0.15;73.52
67980;BME280;54760;47.490;19.030;2022-12-18T09:08:30;102099.28;;;0.07;72.62
67980;BME280;54760;47.490;19.030;2022-12-18T09:10:56;102107.66;;;0.19;72.39
67980;BME280;54760;47.490;19.030;2022-12-18T09:13:22;102108.44;;;0.06;72.15
67980;BME280;54760;47.490;19.030;2022-12-18T09:15:51;102106.34;;;0.03;72.24
67980;BME280;54760;47.490;19.030;2022-12-18T09:18:18;102111.44;;;0.04;72.65
67980;BME280;54760;47.490;19.030;2022-12-18T09:20:45;102099.94;;;0.39;71.06
67980;BME280;54760;47.490;19.030;2022-12-18T09:23:11;102104.06;;;0.10;71.56
67980;BME280;54760;47.490;19.030;2022-12-18T09:25:37;102098.09;;;0.13;71.24
67980;BME280;54760;47.490;19.030;2022-12-18T09:28:11;102091.28;;;0.15;71.87
67980;BME280;54760;47.490;19.030;2022-12-18T09:30:38;102098.37;;;-0.03;72.49
67980;BME280;54760;47.490;19.030;2022-12-18T09:33:03;102097.06;;;0.22;70.67
67980;BME280;54760;47.490;19.030;2022-12-18T09:35:29;102097.16;;;0.31;70.96
67980;BME280;54760;47.490;19.030;2022-12-18T09:37:54;102102.56;;;0.17;71.64
67980;BME280;54760;47.490;19.030;2022-12-18T09:40:23;102099.88;;;0.04;71.99
67980;BME280;54760;47.490;19.030;2022-12-18T09:43:01;102097.00;;;0.14;72.37
67980;BME280;54760;47.490;19.030;2022-12-18T09:45:33;102089.69;;;0.28;71.11
67980;BME280;54760;47.490;19.030;2022-12-18T09:48:03;102097.56;;;0.11;71.79
67980;BME280;54760;47.490;19.030;2022-12-18T09:50:34;102092.47;;;0.36;71.05
67980;BME280;54760;47.490;19.030;2022-12-18T09:53:05;102093.66;;;0.58;70.65
67980;BME280;54760;47.490;19.030;2022-12-18T09:55:46;102095.22;;;0.59;70.51
67980;BME280;54760;47.490;19.030;2022-12-18T09:58:26;102097.22;;;0.67;70.67
67980;BME280;54760;47.490;19.030;2022-12-18T10:00:54;102099.72;;;0.63;70.37
67980;BME280;54760;47.490;19.030;2022-12-18T10:03:20;102104.50;;;0.66;70.43
67980;BME280;54760;47.490;19.030;2022-12-18T10:06:03;102097.19;;;0.80;73.46
67980;BME280;54760;47.490;19.030;2022-12-18T10:11:37;102089.50;;;0.74;70.85
67980;BME280;54760;47.490;19.030;2022-12-18T10:22:19;102086.91;;;1.49;69.14
67980;BME280;54760;47.490;19.030;2022-12-18T10:24:54;102087.25;;;1.56;68.19
67980;BME280;54760;47.490;19.030;2022-12-18T10:27:25;102082.44;;;1.45;68.63
67980;BME280;54760;47.490;19.030;2022-12-18T10:29:51;102089.53;;;1.71;67.59
67980;BME280;54760;47.490;19.030;2022-12-18T10:32:21;102083.06;;;1.81;67.30
67980;BME280;54760;47.490;19.030;2022-12-18T10:34:48;102078.47;;;1.82;67.34
67980;BME280;54760;47.490;19.030;2022-12-18T10:37:25;102082.38;;;2.06;67.34
67980;BME280;54760;47.490;19.030;2022-12-18T10:40:15;102075.44;;;2.23;65.56
67980;BME280;54760;47.490;19.030;2022-12-18T10:42:41;102076.94;;;2.54;64.49
67980;BME280;54760;47.490;19.030;2022-12-18T10:45:14;102079.75;;;2.24;64.90
67980;BME280;54760;47.490;19.030;2022-12-18T10:47:48;102080.34;;;2.21;63.91
67980;BME280;54760;47.490;19.030;2022-12-18T10:50:33;102079.25;;;2.22;64.45
67980;BME280;54760;47.490;19.030;2022-12-18T10:53:01;102073.97;;;1.68;65.58
67980;BME280;54760;47.490;19.030;2022-12-18T10:55:41;102072.59;;;2.19;64.45
67980;BME280;54760;47.490;19.030;2022-12-18T10:58:25;102074.72;;;2.39;63.95
67980;BME280;54760;47.490;19.030;2022-12-18T11:01:22;102075.84;;;2.73;62.89
67980;BME280;54760;47.490;19.030;2022-12-18T11:06:22;102074.91;;;2.69;62.81
67980;BME280;54760;47.490;19.030;2022-12-18T11:11:24;102067.59;;;2.78;62.76
67980;BME280;54760;47.490;19.030;2022-12-18T11:14:00;102061.06;;;2.53;63.08
67980;BME280;54760;47.490;19.030;2022-12-18T11:16:27;102067.06;;;2.50;63.03
67980;BME280;54760;47.490;19.030;2022-12-18T11:18:53;102064.00;;;1.78;65.70
67980;BME280;54760;47.490;19.030;2022-12-18T11:21:19;102064.78;;;1.69;66.26
67980;BME280;54760;47.490;19.030;2022-12-18T11:23:52;102063.75;;;1.96;65.25
67980;BME280;54760;47.490;19.030;2022-12-18T11:26:18;102057.22;;;1.89;66.09
67980;BME280;54760;47.490;19.030;2022-12-18T11:28:49;102066.38;;;1.40;68.03
67980;BME280;54760;47.490;19.030;2022-12-18T11:33:43;102066.63;;;1.60;67.77
67980;BME280;54760;47.490;19.030;2022-12-18T11:36:10;102068.22;;;1.61;67.38
67980;BME280;54760;47.490;19.030;2022-12-18T11:38:38;102058.03;;;1.89;65.99
67980;BME280;54760;47.490;19.030;2022-12-18T11:41:30;102062.25;;;1.73;66.68
67980;BME280;54760;47.490;19.030;2022-12-18T11:44:38;102049.31;;;1.61;67.44
67980;BME280;54760;47.490;19.030;2022-12-18T11:47:15;102052.75;;;1.76;65.59
67980;BME280;54760;47.490;19.030;2022-12-18T11:49:48;102048.44;;;2.31;64.02
67980;BME280;54760;47.490;19.030;2022-12-18T11:52:38;102052.47;;;2.68;63.19
67980;BME280;54760;47.490;19.030;2022-12-18T11:55:12;102050.06;;;3.01;61.58
67980;BME280;54760;47.490;19.030;2022-12-18T11:57:55;102044.06;;;2.78;61.34
67980;BME280;54760;47.490;19.030;2022-12-18T12:00:22;102051.50;;;3.07;60.33
67980;BME280;54760;47.490;19.030;2022-12-18T12:05:35;102035.72;;;3.09;60.09
67980;BME280;54760;47.490;19.030;2022-12-18T12:16:09;102037.66;;;3.00;59.66
67980;BME280;54760;47.490;19.030;2022-12-18T12:21:39;102036.94;;;3.37;58.27
67980;BME280;54760;47.490;19.030;2022-12-18T12:24:21;102033.13;;;3.38;57.13
67980;BME280;54760;47.490;19.030;2022-12-18T12:29:58;102033.00;;;3.26;56.99
67980;BME280;54760;47.490;19.030;2022-12-18T12:32:52;102032.06;;;3.69;55.73
67980;BME280;54760;47.490;19.030;2022-12-18T12:40:35;102026.94;;;7.50;45.67
67980;BME280;54760;47.490;19.030;2022-12-18T12:48:35;102028.19;;;8.69;41.13
67980;BME280;54760;47.490;19.030;2022-12-18T12:51:08;102032.47;;;8.90;39.98
67980;BME280;54760;47.490;19.030;2022-12-18T12:53:36;102030.81;;;8.85;39.29
67980;BME280;54760;47.490;19.030;2022-12-18T12:56:03;102034.41;;;9.08;38.99
67980;BME280;54760;47.490;19.030;2022-12-18T13:01:32;102047.59;;;9.03;39.58
67980;BME280;54760;47.490;19.030;2022-12-18T13:09:31;102060.78;;;8.12;41.82
67980;BME280;54760;47.490;19.030;2022-12-18T13:12:02;102068.25;;;7.68;43.93
67980;BME280;54760;47.490;19.030;2022-12-18T13:14:47;102069.16;;;7.28;44.63
67980;BME280;54760;47.490;19.030;2022-12-18T13:19:44;102070.16;;;6.80;46.56
67980;BME280;54760;47.490;19.030;2022-12-18T13:22:38;102065.81;;;6.91;46.66
67980;BME280;54760;47.490;19.030;2022-12-18T13:25:28;102065.44;;;6.65;46.96
67980;BME280;54760;47.490;19.030;2022-12-18T13:38:36;102087.03;;;5.97;49.54
67980;BME280;54760;47.490;19.030;2022-12-18T13:41:25;102086.19;;;5.73;50.38
67980;BME280;54760;47.490;19.030;2022-12-18T13:43:55;102089.22;;;5.59;50.47
67980;BME280;54760;47.490;19.030;2022-12-18T13:46:47;102085.09;;;5.86;50.65
67980;BME280;54760;47.490;19.030;2022-12-18T13:51:44;102088.00;;;5.68;50.94
67980;BME280;54760;47.490;19.030;2022-12-18T13:54:19;102091.03;;;5.55;51.44
67980;BME280;54760;47.490;19.030;2022-12-18T13:56:46;102095.06;;;5.37;51.55
67980;BME280;54760;47.490;19.030;2022-12-18T14:01:55;102103.03;;;5.00;52.72
67980;BME280;54760;47.490;19.030;2022-12-18T14:04:27;102098.47;;;4.92;53.14
67980;BME280;54760;47.490;19.030;2022-12-18T14:06:56;102100.47;;;4.83;53.30
67980;BME280;54760;47.490;19.030;2022-12-18T14:09:29;102105.94;;;4.54;53.94
67980;BME280;54760;47.490;19.030;2022-12-18T14:11:55;102104.75;;;4.84;53.72
67980;BME280;54760;47.490;19.030;2022-12-18T14:14:47;102112.94;;;4.55;54.15
67980;BME280;54760;47.490;19.030;2022-12-18T14:17:13;102113.09;;;4.29;55.01
67980;BME280;54760;47.490;19.030;2022-12-18T14:19:48;102105.75;;;4.29;54.90
67980;BME280;54760;47.490;19.030;2022-12-18T14:22:16;102116.25;;;4.31;55.21
67980;BME280;54760;47.490;19.030;2022-12-18T14:24:42;102115.06;;;4.11;55.50
67980;BME280;54760;47.490;19.030;2022-12-18T14:27:26;102111.59;;;3.64;56.63
67980;BME280;54760;47.490;19.030;2022-12-18T14:29:51;102120.09;;;4.01;56.18